createdAt,value
2016-11-05T00:00:10.156Z,0
2016-11-05T00:01:10.156Z,0
2016-11-05T00:02:10.167Z,0
2016-11-05T00:03:10.172Z,0
2016-11-05T00:04:10.231Z,0
2016-11-05T00:05:10.280Z,0
2016-11-05T00:06:10.294Z,0
2016-11-05T00:07:10.201Z,0
2016-11-05T00:08:10.251Z,0
2016-11-05T00:09:10.257Z,0
2016-11-05T00:10:10.316Z,0
2016-11-05T00:11:10.454Z,0
2016-11-05T00:12:10.278Z,0
2016-11-05T00:13:10.255Z,0
2016-11-05T00:14:10.264Z,0
2016-11-05T00:15:10.061Z,0
2016-11-05T00:16:09.923Z,0
2016-11-05T00:17:09.880Z,0
2016-11-05T00:18:09.890Z,0
2016-11-05T00:19:09.875Z,0
2016-11-05T00:20:09.712Z,0
2016-11-05T00:21:09.702Z,0
2016-11-05T00:22:09.721Z,0
2016-11-05T00:23:09.676Z,0
2016-11-05T00:24:09.647Z,0
2016-11-05T00:25:09.698Z,0
2016-11-05T00:26:09.658Z,0
2016-11-05T00:27:09.666Z,0
2016-11-05T00:28:09.877Z,0
2016-11-05T00:29:09.673Z,0
2016-11-05T00:30:09.597Z,0
2016-11-05T00:31:09.556Z,0
2016-11-05T00:32:09.554Z,0
2016-11-05T00:33:09.519Z,0
2016-11-05T00:34:09.518Z,0
2016-11-05T00:35:09.505Z,0
2016-11-05T00:36:09.494Z,0
2016-11-05T00:37:09.898Z,0
2016-11-05T00:38:09.462Z,0
2016-11-05T00:39:09.445Z,0
2016-11-05T00:40:09.511Z,0
2016-11-05T00:41:09.460Z,0
2016-11-05T00:42:09.420Z,0
2016-11-05T00:43:09.420Z,0
2016-11-05T00:44:09.383Z,0
2016-11-05T00:45:09.366Z,0
2016-11-05T00:46:09.358Z,0
2016-11-05T00:47:09.353Z,0
2016-11-05T00:48:09.321Z,0
2016-11-05T00:49:09.318Z,0
2016-11-05T00:50:09.306Z,0
2016-11-05T00:51:09.602Z,0
2016-11-05T00:52:09.335Z,0
2016-11-05T00:53:09.258Z,0
2016-11-05T00:54:09.245Z,0
2016-11-05T00:55:09.226Z,0
2016-11-05T00:56:09.213Z,0
2016-11-05T00:57:09.219Z,0
2016-11-05T00:58:09.532Z,0
2016-11-05T00:59:09.178Z,0
2016-11-05T01:00:09.217Z,0
2016-11-05T01:01:09.149Z,0
2016-11-05T01:02:09.153Z,0
2016-11-05T01:03:09.119Z,0
2016-11-05T01:04:09.116Z,0
2016-11-05T01:05:09.109Z,0
2016-11-05T01:06:09.083Z,0
2016-11-05T01:07:09.117Z,0
2016-11-05T01:08:09.046Z,0
2016-11-05T01:09:09.047Z,0
2016-11-05T01:10:09.028Z,0
2016-11-05T01:11:09.068Z,0
2016-11-05T01:12:09.017Z,0
2016-11-05T01:13:09.093Z,0
2016-11-05T01:14:11.586Z,0
2016-11-05T01:15:08.973Z,0
2016-11-05T01:16:08.943Z,0
2016-11-05T01:17:10.092Z,0
2016-11-05T01:18:08.908Z,0
2016-11-05T01:19:08.918Z,0
2016-11-05T01:20:08.942Z,0
2016-11-05T01:21:08.929Z,0
2016-11-05T01:22:09.459Z,0
2016-11-05T01:23:08.933Z,0
2016-11-05T01:24:08.837Z,0
2016-11-05T01:25:08.826Z,0
2016-11-05T01:26:08.812Z,0
2016-11-05T01:27:09.196Z,0
2016-11-05T01:28:08.930Z,0
2016-11-05T01:29:08.885Z,0
2016-11-05T01:30:08.864Z,0
2016-11-05T01:31:09.047Z,0
2016-11-05T01:32:08.843Z,0
2016-11-05T01:33:08.875Z,0
2016-11-05T01:34:08.928Z,0
2016-11-05T01:35:08.978Z,0
2016-11-05T01:36:09.091Z,0
2016-11-05T01:37:08.910Z,0
2016-11-05T01:38:09.042Z,0
2016-11-05T01:39:09.006Z,0
2016-11-05T01:40:08.993Z,0
2016-11-05T01:41:09.469Z,0
2016-11-05T01:42:09.025Z,0
2016-11-05T01:43:09.270Z,0
2016-11-05T01:44:08.928Z,0
2016-11-05T01:45:08.988Z,0
2016-11-05T01:46:08.899Z,0
2016-11-05T01:47:09.016Z,0
2016-11-05T01:48:08.947Z,0
2016-11-05T01:49:08.996Z,0
2016-11-05T01:50:08.722Z,0
2016-11-05T01:51:08.753Z,0
2016-11-05T01:52:08.654Z,0
2016-11-05T01:53:08.672Z,0
2016-11-05T01:54:08.707Z,0
2016-11-05T01:55:08.684Z,0
2016-11-05T01:56:08.696Z,0
2016-11-05T01:57:08.588Z,0
2016-11-05T01:58:08.559Z,0
2016-11-05T01:59:08.612Z,0
2016-11-05T02:00:08.644Z,0
2016-11-05T02:01:21.356Z,0
2016-11-05T02:02:08.861Z,0
2016-11-05T02:03:08.803Z,0
2016-11-05T02:04:08.707Z,0
2016-11-05T02:05:08.985Z,0
2016-11-05T02:06:08.665Z,0
2016-11-05T02:07:08.447Z,0
2016-11-05T02:08:08.357Z,0
2016-11-05T02:09:08.712Z,0
2016-11-05T02:10:08.320Z,0
2016-11-05T02:11:08.727Z,0
2016-11-05T02:12:08.328Z,0
2016-11-05T02:13:08.196Z,0
2016-11-05T02:14:08.366Z,0
2016-11-05T02:15:08.474Z,0
2016-11-05T02:16:08.335Z,0
2016-11-05T02:17:08.130Z,0
2016-11-05T02:18:08.365Z,0
2016-11-05T02:19:08.341Z,0
2016-11-05T02:20:08.723Z,0
2016-11-05T02:21:08.471Z,0
2016-11-05T02:22:08.521Z,0
2016-11-05T02:23:08.456Z,0
2016-11-05T02:24:08.395Z,0
2016-11-05T02:25:08.153Z,0
2016-11-05T02:26:08.287Z,0
2016-11-05T02:27:08.377Z,0
2016-11-05T02:28:08.106Z,0
2016-11-05T02:29:08.005Z,0
2016-11-05T02:30:08.046Z,0
2016-11-05T02:31:07.954Z,0
2016-11-05T02:32:07.936Z,0
2016-11-05T02:33:08.302Z,0
2016-11-05T02:34:07.919Z,0
2016-11-05T02:35:07.873Z,0
2016-11-05T02:36:08.196Z,0
2016-11-05T02:37:07.883Z,0
2016-11-05T02:38:07.885Z,0
2016-11-05T02:39:07.943Z,0
2016-11-05T02:40:07.933Z,0
2016-11-05T02:41:08.068Z,0
2016-11-05T02:42:08.110Z,0
2016-11-05T02:43:08.021Z,0
2016-11-05T02:44:08.065Z,0
2016-11-05T02:45:08.117Z,0
2016-11-05T02:46:07.925Z,0
2016-11-05T02:47:08.325Z,0
2016-11-05T02:48:08.038Z,0
2016-11-05T02:49:07.722Z,0
2016-11-05T02:50:07.795Z,0
2016-11-05T02:51:07.877Z,0
2016-11-05T02:52:07.656Z,0
2016-11-05T02:53:07.648Z,0
2016-11-05T02:54:08.117Z,0
2016-11-05T02:55:07.615Z,0
2016-11-05T02:56:07.916Z,0
2016-11-05T02:57:07.574Z,0
2016-11-05T02:58:07.590Z,0
2016-11-05T02:59:07.629Z,0
2016-11-05T03:00:07.838Z,0
2016-11-05T03:01:07.873Z,0
2016-11-05T03:02:07.942Z,0
2016-11-05T03:03:07.828Z,0
2016-11-05T03:04:07.639Z,0
2016-11-05T03:05:07.730Z,0
2016-11-05T03:06:07.578Z,0
2016-11-05T03:07:07.591Z,0
2016-11-05T03:08:08.032Z,0
2016-11-05T03:09:07.459Z,0
2016-11-05T03:10:07.421Z,0
2016-11-05T03:11:07.406Z,0
2016-11-05T03:12:07.380Z,0
2016-11-05T03:13:07.376Z,0
2016-11-05T03:14:07.355Z,0
2016-11-05T03:15:07.348Z,0
2016-11-05T03:16:07.329Z,0
2016-11-05T03:17:07.376Z,0
2016-11-05T03:18:07.481Z,0
2016-11-05T03:19:07.737Z,0
2016-11-05T03:20:07.531Z,0
2016-11-05T03:21:07.341Z,0
2016-11-05T03:22:07.476Z,0
2016-11-05T03:23:07.428Z,0
2016-11-05T03:24:07.569Z,0
2016-11-05T03:25:07.606Z,0
2016-11-05T03:26:07.585Z,0
2016-11-05T03:27:07.825Z,0
2016-11-05T03:28:07.456Z,0
2016-11-05T03:29:07.234Z,0
2016-11-05T03:30:07.339Z,0
2016-11-05T03:31:07.228Z,0
2016-11-05T03:32:07.108Z,0
2016-11-05T03:33:07.108Z,0
2016-11-05T03:34:07.120Z,0
2016-11-05T03:35:07.063Z,0
2016-11-05T03:36:07.079Z,0
2016-11-05T03:37:07.070Z,0
2016-11-05T03:38:07.135Z,0
2016-11-05T03:39:07.123Z,0
2016-11-05T03:40:07.233Z,0
2016-11-05T03:41:07.417Z,0
2016-11-05T03:42:07.313Z,0
2016-11-05T03:43:07.760Z,0
2016-11-05T03:44:07.572Z,0
2016-11-05T03:45:07.393Z,0
2016-11-05T03:46:07.438Z,0
2016-11-05T03:47:07.177Z,0
2016-11-05T03:48:07.324Z,0
2016-11-05T03:49:07.240Z,0
2016-11-05T03:50:07.101Z,0
2016-11-05T03:51:06.933Z,0
2016-11-05T03:52:06.896Z,0
2016-11-05T03:53:06.854Z,0
2016-11-05T03:54:06.890Z,0
2016-11-05T03:55:06.802Z,0
2016-11-05T03:56:06.796Z,0
2016-11-05T03:57:06.773Z,0
2016-11-05T03:58:06.860Z,0
2016-11-05T03:59:06.798Z,0
2016-11-05T04:00:06.737Z,0
2016-11-05T04:01:06.792Z,0
2016-11-05T04:02:06.798Z,0
2016-11-05T04:03:06.895Z,0
2016-11-05T04:04:06.933Z,0
2016-11-05T04:05:06.958Z,0
2016-11-05T04:06:06.960Z,0
2016-11-05T04:07:06.927Z,0
2016-11-05T04:08:07.045Z,0
2016-11-05T04:09:07.018Z,0
2016-11-05T04:10:07.040Z,0
2016-11-05T04:11:06.907Z,0
2016-11-05T04:12:06.851Z,0
2016-11-05T04:13:06.700Z,0
2016-11-05T04:14:06.627Z,0
2016-11-05T04:15:06.552Z,0
2016-11-05T04:16:06.541Z,0
2016-11-05T04:17:06.552Z,0
2016-11-05T04:18:06.551Z,0
2016-11-05T04:19:06.565Z,0
2016-11-05T04:20:06.598Z,0
2016-11-05T04:21:06.618Z,0
2016-11-05T04:22:06.628Z,0
2016-11-05T04:23:06.600Z,0
2016-11-05T04:24:06.626Z,0
2016-11-05T04:25:06.725Z,0
2016-11-05T04:26:06.969Z,0
2016-11-05T04:27:06.650Z,0
2016-11-05T04:28:06.795Z,0
2016-11-05T04:29:06.754Z,0
2016-11-05T04:30:06.837Z,0
2016-11-05T04:31:06.803Z,0
2016-11-05T04:32:06.726Z,0
2016-11-05T04:33:06.725Z,0
2016-11-05T04:34:06.560Z,0
2016-11-05T04:35:06.549Z,0
2016-11-05T04:36:11.565Z,0
2016-11-05T04:37:06.430Z,0
2016-11-05T04:38:06.363Z,0
2016-11-05T04:39:06.370Z,0
2016-11-05T04:40:06.382Z,0
2016-11-05T04:41:06.381Z,0
2016-11-05T04:42:06.383Z,0
2016-11-05T04:43:06.393Z,0
2016-11-05T04:44:06.400Z,0
2016-11-05T04:45:06.401Z,0
2016-11-05T04:46:06.313Z,0
2016-11-05T04:47:06.313Z,0
2016-11-05T04:48:06.567Z,0
2016-11-05T04:49:06.447Z,0
2016-11-05T04:50:06.341Z,0
2016-11-05T04:51:06.624Z,0
2016-11-05T04:52:06.327Z,0
2016-11-05T04:53:06.178Z,0
2016-11-05T04:54:06.164Z,0
2016-11-05T04:55:06.216Z,0
2016-11-05T04:56:06.503Z,0
2016-11-05T04:57:06.161Z,0
2016-11-05T04:58:06.400Z,0
2016-11-05T04:59:08.182Z,0
2016-11-05T05:00:06.169Z,0
2016-11-05T05:01:06.001Z,0
2016-11-05T05:02:06.019Z,0
2016-11-05T05:03:05.990Z,0
2016-11-05T05:04:05.994Z,0
2016-11-05T05:05:05.861Z,0
2016-11-05T05:06:05.863Z,0
2016-11-05T05:07:05.828Z,0
2016-11-05T05:08:06.405Z,0
2016-11-05T05:09:06.132Z,0
2016-11-05T05:10:05.791Z,0
2016-11-05T05:11:05.772Z,0
2016-11-05T05:12:05.767Z,0
2016-11-05T05:13:05.926Z,0
2016-11-05T05:14:05.726Z,0
2016-11-05T05:15:05.722Z,0
2016-11-05T05:16:05.705Z,0
2016-11-05T05:17:05.694Z,0
2016-11-05T05:18:06.159Z,0
2016-11-05T05:19:05.661Z,0
2016-11-05T05:20:05.665Z,0
2016-11-05T05:21:05.634Z,0
2016-11-05T05:22:05.638Z,0
2016-11-05T05:23:05.617Z,0
2016-11-05T05:24:05.595Z,0
2016-11-05T05:25:05.594Z,0
2016-11-05T05:26:05.586Z,0
2016-11-05T05:27:05.551Z,0
2016-11-05T05:28:05.567Z,0
2016-11-05T05:29:05.528Z,0
2016-11-05T05:30:05.526Z,0
2016-11-05T05:31:05.499Z,0
2016-11-05T05:32:05.490Z,0
2016-11-05T05:33:05.474Z,0
2016-11-05T05:34:05.510Z,0
2016-11-05T05:35:05.436Z,0
2016-11-05T05:36:05.431Z,0
2016-11-05T05:37:05.428Z,0
2016-11-05T05:38:05.409Z,0
2016-11-05T05:39:05.713Z,0
2016-11-05T05:40:05.387Z,0
2016-11-05T05:41:05.363Z,0
2016-11-05T05:42:05.356Z,0
2016-11-05T05:43:05.337Z,0
2016-11-05T05:44:05.325Z,0
2016-11-05T05:45:05.305Z,0
2016-11-05T05:46:05.297Z,0
2016-11-05T05:47:05.928Z,0
2016-11-05T05:48:05.275Z,0
2016-11-05T05:49:05.570Z,0
2016-11-05T05:50:05.289Z,0
2016-11-05T05:51:05.233Z,0
2016-11-05T05:52:05.219Z,0
2016-11-05T05:53:05.205Z,0
2016-11-05T05:54:05.225Z,0
2016-11-05T05:55:05.183Z,0
2016-11-05T05:56:05.208Z,0
2016-11-05T05:57:05.229Z,0
2016-11-05T05:58:05.141Z,0
2016-11-05T05:59:05.127Z,0
2016-11-05T06:00:05.131Z,0
2016-11-05T06:01:05.477Z,0
2016-11-05T06:02:05.147Z,0
2016-11-05T06:03:05.273Z,0
2016-11-05T06:04:05.345Z,0
2016-11-05T06:05:05.288Z,0
2016-11-05T06:06:05.144Z,0
2016-11-05T06:07:05.291Z,0
2016-11-05T06:08:05.574Z,0
2016-11-05T06:09:05.448Z,0
2016-11-05T06:10:05.207Z,0
2016-11-05T06:11:05.339Z,0
2016-11-05T06:12:05.191Z,0
2016-11-05T06:13:05.071Z,0
2016-11-05T06:14:05.052Z,0
2016-11-05T06:15:04.933Z,0
2016-11-05T06:16:04.901Z,0
2016-11-05T06:17:04.882Z,0
2016-11-05T06:18:04.887Z,0
2016-11-05T06:19:04.861Z,0
2016-11-05T06:20:05.176Z,0
2016-11-05T06:21:04.884Z,0
2016-11-05T06:22:04.919Z,0
2016-11-05T06:23:05.002Z,5
2016-11-05T06:24:05.028Z,5
2016-11-05T06:25:04.965Z,5
2016-11-05T06:26:04.940Z,5
2016-11-05T06:27:04.979Z,5
2016-11-05T06:28:05.035Z,5
2016-11-05T06:29:05.049Z,5
2016-11-05T06:30:05.231Z,10
2016-11-05T06:31:04.977Z,10
2016-11-05T06:32:04.896Z,15
2016-11-05T06:33:08.256Z,15
2016-11-05T06:34:05.928Z,20
2016-11-05T06:35:04.704Z,20
2016-11-05T06:36:05.137Z,20
2016-11-05T06:37:04.855Z,15
2016-11-05T06:38:06.937Z,15
2016-11-05T06:39:04.605Z,15
2016-11-05T06:40:04.569Z,15
2016-11-05T06:41:04.558Z,15
2016-11-05T06:42:04.882Z,15
2016-11-05T06:43:04.543Z,20
2016-11-05T06:44:04.528Z,20
2016-11-05T06:45:04.502Z,20
2016-11-05T06:46:04.503Z,25
2016-11-05T06:47:04.477Z,30
2016-11-05T06:48:04.486Z,30
2016-11-05T06:49:04.458Z,40
2016-11-05T06:50:04.473Z,45
2016-11-05T06:51:04.493Z,45
2016-11-05T06:52:04.461Z,50
2016-11-05T06:53:04.417Z,55
2016-11-05T06:54:04.396Z,55
2016-11-05T06:55:04.368Z,55
2016-11-05T06:56:04.365Z,55
2016-11-05T06:57:04.387Z,55
2016-11-05T06:58:04.345Z,55
2016-11-05T06:59:04.331Z,60
2016-11-05T07:00:04.645Z,60
2016-11-05T07:01:04.341Z,60
2016-11-05T07:02:04.284Z,60
2016-11-05T07:03:04.272Z,60
2016-11-05T07:04:04.594Z,55
2016-11-05T07:05:04.268Z,50
2016-11-05T07:06:04.270Z,50
2016-11-05T07:07:04.219Z,50
2016-11-05T07:08:04.205Z,40
2016-11-05T07:09:04.194Z,40
2016-11-05T07:10:04.213Z,40
2016-11-05T07:11:04.549Z,35
2016-11-05T07:12:04.209Z,35
2016-11-05T07:13:04.216Z,35
2016-11-05T07:14:04.226Z,35
2016-11-05T07:15:04.228Z,40
2016-11-05T07:16:04.168Z,50
2016-11-05T07:17:04.142Z,55
2016-11-05T07:18:04.154Z,65
2016-11-05T07:19:04.156Z,70
2016-11-05T07:20:04.161Z,65
2016-11-05T07:21:04.113Z,65
2016-11-05T07:22:04.160Z,70
2016-11-05T07:23:04.116Z,75
2016-11-05T07:24:04.086Z,90
2016-11-05T07:25:04.133Z,90
2016-11-05T07:26:04.141Z,95
2016-11-05T07:27:04.307Z,95
2016-11-05T07:28:04.087Z,90
2016-11-05T07:29:04.089Z,85
2016-11-05T07:30:04.100Z,80
2016-11-05T07:31:04.077Z,75
2016-11-05T07:32:04.084Z,70
2016-11-05T07:33:04.057Z,70
2016-11-05T07:34:04.009Z,70
2016-11-05T07:35:04.074Z,65
2016-11-05T07:36:04.042Z,55
2016-11-05T07:37:03.981Z,50
2016-11-05T07:38:03.988Z,45
2016-11-05T07:39:04.055Z,40
2016-11-05T07:40:04.058Z,45
2016-11-05T07:41:03.937Z,45
2016-11-05T07:42:03.983Z,45
2016-11-05T07:43:03.982Z,50
2016-11-05T07:44:03.989Z,55
2016-11-05T07:45:03.997Z,60
2016-11-05T07:46:04.005Z,60
2016-11-05T07:47:03.855Z,60
2016-11-05T07:48:03.988Z,65
2016-11-05T07:49:03.843Z,70
2016-11-05T07:50:03.820Z,65
2016-11-05T07:51:03.809Z,70
2016-11-05T07:52:03.821Z,75
2016-11-05T07:53:03.817Z,75
2016-11-05T07:54:03.614Z,75
2016-11-05T07:55:03.819Z,70
2016-11-05T07:56:03.823Z,65
2016-11-05T07:57:03.641Z,60
2016-11-05T07:58:03.751Z,60
2016-11-05T07:59:03.708Z,60
2016-11-05T08:00:03.705Z,65
2016-11-05T08:01:03.528Z,70
2016-11-05T08:02:03.517Z,65
2016-11-05T08:03:03.684Z,60
2016-11-05T08:04:03.476Z,60
2016-11-05T08:05:03.641Z,60
2016-11-05T08:06:03.761Z,70
2016-11-05T08:07:03.546Z,75
2016-11-05T08:08:03.431Z,80
2016-11-05T08:09:03.528Z,85
2016-11-05T08:10:03.410Z,90
2016-11-05T08:11:03.562Z,95
2016-11-05T08:12:03.385Z,100
2016-11-05T08:13:03.411Z,115
2016-11-05T08:14:03.388Z,125
2016-11-05T08:15:03.671Z,145
2016-11-05T08:16:03.551Z,145
2016-11-05T08:17:03.844Z,145
2016-11-05T08:18:03.530Z,135
2016-11-05T08:19:18.216Z,155
2016-11-05T08:20:03.348Z,170
2016-11-05T08:21:03.277Z,180
2016-11-05T08:22:03.276Z,210
2016-11-05T08:23:03.268Z,220
2016-11-05T08:24:03.235Z,225
2016-11-05T08:25:03.220Z,220
2016-11-05T08:26:03.210Z,210
2016-11-05T08:27:03.214Z,210
2016-11-05T08:28:03.187Z,205
2016-11-05T08:29:03.185Z,200
2016-11-05T08:30:03.164Z,200
2016-11-05T08:31:03.156Z,215
2016-11-05T08:32:03.147Z,220
2016-11-05T08:33:03.146Z,215
2016-11-05T08:34:03.115Z,200
2016-11-05T08:35:03.115Z,180
2016-11-05T08:36:03.093Z,175
2016-11-05T08:37:03.089Z,175
2016-11-05T08:38:03.086Z,185
2016-11-05T08:39:03.089Z,195
2016-11-05T08:40:03.051Z,200
2016-11-05T08:41:03.035Z,210
2016-11-05T08:42:03.036Z,230
2016-11-05T08:43:03.022Z,230
2016-11-05T08:44:03.011Z,230
2016-11-05T08:45:03.004Z,230
2016-11-05T08:46:02.993Z,235
2016-11-05T08:47:02.975Z,235
2016-11-05T08:48:02.969Z,240
2016-11-05T08:49:02.959Z,235
2016-11-05T08:50:02.960Z,215
2016-11-05T08:51:02.980Z,200
2016-11-05T08:52:02.931Z,195
2016-11-05T08:53:02.915Z,180
2016-11-05T08:54:03.213Z,175
2016-11-05T08:55:02.893Z,175
2016-11-05T08:56:02.898Z,180
2016-11-05T08:57:02.876Z,180
2016-11-05T08:58:02.865Z,180
2016-11-05T08:59:03.213Z,185
2016-11-05T09:00:02.840Z,180
2016-11-05T09:01:02.831Z,175
2016-11-05T09:02:02.822Z,175
2016-11-05T09:03:02.852Z,170
2016-11-05T09:04:02.800Z,170
2016-11-05T09:05:02.828Z,165
2016-11-05T09:06:02.784Z,175
2016-11-05T09:07:02.769Z,170
2016-11-05T09:08:02.769Z,160
2016-11-05T09:09:02.754Z,150
2016-11-05T09:10:02.736Z,145
2016-11-05T09:11:02.721Z,150
2016-11-05T09:12:02.715Z,155
2016-11-05T09:13:02.706Z,170
2016-11-05T09:14:02.702Z,170
2016-11-05T09:15:03.001Z,170
2016-11-05T09:16:03.011Z,165
2016-11-05T09:17:02.667Z,170
2016-11-05T09:18:02.659Z,165
2016-11-05T09:19:02.646Z,150
2016-11-05T09:20:02.630Z,145
2016-11-05T09:21:02.626Z,155
2016-11-05T09:22:02.606Z,145
2016-11-05T09:23:02.602Z,140
2016-11-05T09:24:02.596Z,140
2016-11-05T09:25:02.651Z,140
2016-11-05T09:26:02.747Z,135
2016-11-05T09:27:02.727Z,120
2016-11-05T09:28:02.753Z,125
2016-11-05T09:29:02.705Z,130
2016-11-05T09:30:02.823Z,115
2016-11-05T09:31:02.679Z,110
2016-11-05T09:32:02.796Z,100
2016-11-05T09:33:02.735Z,90
2016-11-05T09:34:02.747Z,105
2016-11-05T09:35:02.759Z,125
2016-11-05T09:36:02.765Z,130
2016-11-05T09:37:02.836Z,135
2016-11-05T09:38:02.737Z,140
2016-11-05T09:39:02.602Z,135
2016-11-05T09:40:02.631Z,135
2016-11-05T09:41:02.626Z,125
2016-11-05T09:42:02.630Z,115
2016-11-05T09:43:02.608Z,110
2016-11-05T09:44:02.581Z,100
2016-11-05T09:45:02.580Z,100
2016-11-05T09:46:02.589Z,95
2016-11-05T09:47:02.442Z,100
2016-11-05T09:48:02.417Z,105
2016-11-05T09:49:02.432Z,110
2016-11-05T09:50:02.426Z,115
2016-11-05T09:51:02.432Z,95
2016-11-05T09:52:02.410Z,80
2016-11-05T09:53:02.428Z,80
2016-11-05T09:54:02.268Z,95
2016-11-05T09:55:02.254Z,95
2016-11-05T09:56:02.258Z,100
2016-11-05T09:57:02.233Z,85
2016-11-05T09:58:02.227Z,95
2016-11-05T09:59:02.217Z,95
2016-11-05T10:00:02.210Z,120
2016-11-05T10:01:02.234Z,140
2016-11-05T10:02:02.199Z,185
2016-11-05T10:03:02.743Z,215
2016-11-05T10:04:02.167Z,220
2016-11-05T10:05:02.156Z,215
2016-11-05T10:06:02.140Z,230
2016-11-05T10:07:02.128Z,235
2016-11-05T10:08:02.609Z,230
2016-11-05T10:09:02.107Z,220
2016-11-05T10:10:02.696Z,215
2016-11-05T10:11:02.119Z,215
2016-11-05T10:12:02.110Z,205
2016-11-05T10:13:02.063Z,200
2016-11-05T10:14:02.071Z,205
2016-11-05T10:15:02.048Z,220
2016-11-05T10:16:02.036Z,235
2016-11-05T10:17:02.025Z,245
2016-11-05T10:18:02.028Z,265
2016-11-05T10:19:02.410Z,270
2016-11-05T10:20:02.030Z,270
2016-11-05T10:21:01.981Z,260
2016-11-05T10:22:02.562Z,260
2016-11-05T10:23:01.970Z,275
2016-11-05T10:24:01.972Z,265
2016-11-05T10:25:01.946Z,240
2016-11-05T10:26:01.949Z,210
2016-11-05T10:27:01.930Z,200
2016-11-05T10:28:01.927Z,195
2016-11-05T10:29:01.908Z,200
2016-11-05T10:30:01.899Z,205
2016-11-05T10:31:02.217Z,210
2016-11-05T10:32:01.941Z,200
2016-11-05T10:33:01.875Z,195
2016-11-05T10:34:01.869Z,200
2016-11-05T10:35:01.843Z,225
2016-11-05T10:36:01.847Z,235
2016-11-05T10:37:01.832Z,240
2016-11-05T10:38:01.837Z,250
2016-11-05T10:39:01.806Z,255
2016-11-05T10:40:01.812Z,245
2016-11-05T10:41:01.800Z,260
2016-11-05T10:42:01.784Z,275
2016-11-05T10:43:01.771Z,295
2016-11-05T10:44:01.765Z,315
2016-11-05T10:45:01.746Z,310
2016-11-05T10:46:01.756Z,295
2016-11-05T10:47:01.725Z,280
2016-11-05T10:48:02.031Z,265
2016-11-05T10:49:01.708Z,260
2016-11-05T10:50:01.711Z,245
2016-11-05T10:51:01.695Z,240
2016-11-05T10:52:01.691Z,225
2016-11-05T10:53:01.669Z,225
2016-11-05T10:54:01.664Z,215
2016-11-05T10:55:01.648Z,205
2016-11-05T10:56:01.652Z,210
2016-11-05T10:57:01.649Z,210
2016-11-05T10:58:01.645Z,255
2016-11-05T10:59:01.622Z,280
2016-11-05T11:00:01.613Z,275
2016-11-05T11:01:01.603Z,280
2016-11-05T11:02:01.590Z,265
2016-11-05T11:03:01.594Z,210
2016-11-05T11:04:01.573Z,175
2016-11-05T11:05:01.569Z,170
2016-11-05T11:06:01.556Z,175
2016-11-05T11:07:01.544Z,190
2016-11-05T11:08:01.546Z,200
2016-11-05T11:09:01.534Z,190
2016-11-05T11:10:01.523Z,190
2016-11-05T11:11:01.508Z,175
2016-11-05T11:12:01.496Z,175
2016-11-05T11:13:01.478Z,210
2016-11-05T11:14:01.480Z,195
2016-11-05T11:15:01.465Z,195
2016-11-05T11:16:01.453Z,215
2016-11-05T11:17:01.456Z,225
2016-11-05T11:18:01.439Z,180
2016-11-05T11:19:01.432Z,135
2016-11-05T11:20:01.413Z,130
2016-11-05T11:21:01.411Z,125
2016-11-05T11:22:01.399Z,155
2016-11-05T11:23:01.393Z,165
2016-11-05T11:24:01.409Z,125
2016-11-05T11:25:01.369Z,95
2016-11-05T11:26:01.358Z,75
2016-11-05T11:27:01.388Z,65
2016-11-05T11:28:01.354Z,45
2016-11-05T11:29:01.344Z,50
2016-11-05T11:30:01.316Z,75
2016-11-05T11:31:01.309Z,90
2016-11-05T11:32:01.313Z,120
2016-11-05T11:33:01.286Z,135
2016-11-05T11:34:01.294Z,145
2016-11-05T11:35:01.271Z,175
2016-11-05T11:36:01.278Z,175
2016-11-05T11:37:01.253Z,145
2016-11-05T11:38:01.237Z,165
2016-11-05T11:39:01.240Z,185
2016-11-05T11:40:01.229Z,205
2016-11-05T11:41:01.240Z,180
2016-11-05T11:42:01.205Z,155
2016-11-05T11:43:01.192Z,155
2016-11-05T11:44:01.174Z,155
2016-11-05T11:45:01.173Z,150
2016-11-05T11:46:01.213Z,145
2016-11-05T11:47:01.204Z,150
2016-11-05T11:48:01.136Z,155
2016-11-05T11:49:01.133Z,150
2016-11-05T11:50:01.119Z,145
2016-11-05T11:51:01.114Z,135
2016-11-05T11:52:01.107Z,130
2016-11-05T11:53:01.093Z,125
2016-11-05T11:54:01.077Z,140
2016-11-05T11:55:01.068Z,145
2016-11-05T11:56:01.063Z,150
2016-11-05T11:57:01.088Z,155
2016-11-05T11:58:01.047Z,155
2016-11-05T11:59:01.033Z,155
2016-11-05T12:00:01.031Z,160
2016-11-05T12:01:01.011Z,185
2016-11-05T12:02:01.003Z,205
2016-11-05T12:03:01.000Z,210
2016-11-05T12:04:00.987Z,210
2016-11-05T12:05:00.979Z,200
2016-11-05T12:06:00.961Z,200
2016-11-05T12:07:00.948Z,200
2016-11-05T12:08:00.942Z,195
2016-11-05T12:09:00.939Z,205
2016-11-05T12:10:00.924Z,215
2016-11-05T12:11:00.941Z,215
2016-11-05T12:12:00.905Z,220
2016-11-05T12:13:00.888Z,225
2016-11-05T12:14:00.889Z,225
2016-11-05T12:15:00.875Z,235
2016-11-05T12:16:00.866Z,245
2016-11-05T12:17:00.865Z,245
2016-11-05T12:18:00.840Z,240
2016-11-05T12:19:00.836Z,245
2016-11-05T12:20:00.824Z,250
2016-11-05T12:21:00.815Z,235
2016-11-05T12:22:00.808Z,230
2016-11-05T12:23:00.843Z,210
2016-11-05T12:24:00.784Z,195
2016-11-05T12:25:00.780Z,185
2016-11-05T12:26:00.792Z,180
2016-11-05T12:27:00.761Z,180
2016-11-05T12:28:00.838Z,185
2016-11-05T12:29:00.753Z,185
2016-11-05T12:30:00.735Z,190
2016-11-05T12:31:00.723Z,190
2016-11-05T12:32:00.713Z,195
2016-11-05T12:33:00.706Z,190
2016-11-05T12:34:00.687Z,190
2016-11-05T12:35:00.695Z,185
2016-11-05T12:36:00.691Z,185
2016-11-05T12:37:00.714Z,180
2016-11-05T12:38:00.658Z,170
2016-11-05T12:39:00.654Z,155
2016-11-05T12:40:00.646Z,145
2016-11-05T12:41:00.629Z,140
2016-11-05T12:42:00.629Z,130
2016-11-05T12:43:00.604Z,125
2016-11-05T12:44:00.591Z,110
2016-11-05T12:45:00.590Z,105
2016-11-05T12:46:00.581Z,105
2016-11-05T12:47:00.600Z,110
2016-11-05T12:48:00.925Z,115
2016-11-05T12:49:00.626Z,120
2016-11-05T12:50:00.601Z,120
2016-11-05T12:51:00.752Z,125
2016-11-05T12:52:00.617Z,115
2016-11-05T12:53:00.663Z,105
2016-11-05T12:54:00.524Z,100
2016-11-05T12:55:00.533Z,100
2016-11-05T12:56:00.542Z,105
2016-11-05T12:57:00.542Z,115
2016-11-05T12:58:00.551Z,130
2016-11-05T12:59:00.557Z,135
2016-11-05T13:00:00.568Z,140
2016-11-05T13:01:00.518Z,140
2016-11-05T13:02:00.518Z,140
2016-11-05T13:03:00.524Z,140
2016-11-05T13:04:00.535Z,140
2016-11-05T13:05:00.544Z,135
2016-11-05T13:06:00.551Z,130
2016-11-05T13:07:00.449Z,130
2016-11-05T13:08:00.459Z,130
2016-11-05T13:09:00.473Z,130
2016-11-05T13:10:00.476Z,130
2016-11-05T13:11:00.476Z,125
2016-11-05T13:12:00.493Z,125
2016-11-05T13:13:00.500Z,130
2016-11-05T13:14:00.509Z,130
2016-11-05T13:15:00.372Z,135
2016-11-05T13:16:00.370Z,130
2016-11-05T13:17:00.379Z,120
2016-11-05T13:18:00.396Z,110
2016-11-05T13:19:00.438Z,100
2016-11-05T13:20:00.456Z,90
2016-11-05T13:21:00.306Z,90
2016-11-05T13:22:00.315Z,90
2016-11-05T13:23:00.330Z,90
2016-11-05T13:24:00.333Z,90
2016-11-05T13:25:00.341Z,90
2016-11-05T13:26:00.343Z,80
2016-11-05T13:27:00.350Z,80
2016-11-05T13:28:00.501Z,90
2016-11-05T13:29:00.367Z,95
2016-11-05T13:30:00.355Z,95
2016-11-05T13:31:00.375Z,95
2016-11-05T13:32:00.288Z,90
2016-11-05T13:33:00.293Z,85
2016-11-05T13:34:00.305Z,80
2016-11-05T13:35:00.311Z,75
2016-11-05T13:36:00.312Z,70
2016-11-05T13:37:00.160Z,60
2016-11-05T13:38:00.269Z,65
2016-11-05T13:39:00.127Z,60
2016-11-05T13:40:00.246Z,55
2016-11-05T13:41:00.120Z,50
2016-11-05T13:42:00.126Z,55
2016-11-05T13:43:00.134Z,60
2016-11-05T13:44:00.113Z,65
2016-11-05T13:45:00.110Z,70
2016-11-05T13:46:00.091Z,70
2016-11-05T13:47:00.081Z,65
2016-11-05T13:47:59.976Z,55
2016-11-05T13:49:00.083Z,55
2016-11-05T13:49:59.965Z,55
2016-11-05T13:50:59.946Z,60
2016-11-05T13:51:59.930Z,60
2016-11-05T13:52:59.917Z,60
2016-11-05T13:53:59.921Z,60
2016-11-05T13:54:59.903Z,55
2016-11-05T13:55:59.887Z,55
2016-11-05T13:56:59.879Z,50
2016-11-05T13:57:59.868Z,45
2016-11-05T13:58:59.855Z,45
2016-11-05T13:59:59.847Z,50
2016-11-05T14:00:59.844Z,50
2016-11-05T14:01:59.822Z,50
2016-11-05T14:02:59.815Z,60
2016-11-05T14:03:59.809Z,60
2016-11-05T14:04:59.794Z,50
2016-11-05T14:05:59.822Z,45
2016-11-05T14:06:59.786Z,45
2016-11-05T14:07:59.775Z,50
2016-11-05T14:08:59.748Z,50
2016-11-05T14:09:59.767Z,45
2016-11-05T14:10:59.742Z,60
2016-11-05T14:11:59.729Z,70
2016-11-05T14:12:59.720Z,75
2016-11-05T14:13:59.696Z,80
2016-11-05T14:14:59.688Z,75
2016-11-05T14:15:59.683Z,75
2016-11-05T14:16:59.680Z,70
2016-11-05T14:17:59.671Z,70
2016-11-05T14:18:59.651Z,70